Time;durP1;ratioP1;P1;durP2;ratioP2;P2;SDS_P1;SDS_P2;PMS_P1;PMS_P2;Temp;Humidity;BMP_temperature;BMP_pressure;BME280_temperature;BME280_humidity;BME280_pressure;Samples;Min_cycle;Max_cycle;Signal;HPM_P1;HPM_P2
2022/09/24 00:01:20;;;;;;;21.80;12.05;;;;;;;15.07;100.00;100933.84;5058111;28;20131;-73
2022/09/24 00:03:56;;;;;;;25.10;10.52;;;;;;;15.13;100.00;100932.13;5059962;28;20052;-74
2022/09/24 00:06:23;;;;;;;21.38;10.52;;;;;;;15.18;100.00;100926.09;5059365;28;20061;-74
2022/09/24 00:08:53;;;;;;;19.05;9.93;;;;;;;15.22;100.00;100929.59;5057667;28;20834;-74
2022/09/24 00:11:21;;;;;;;24.27;10.43;;;;;;;15.24;100.00;100921.63;5066065;28;20448;-74
2022/09/24 00:13:50;;;;;;;19.00;9.40;;;;;;;15.26;100.00;100921.19;5057364;28;20155;-74
2022/09/24 00:16:19;;;;;;;18.95;10.57;;;;;;;15.27;100.00;100915.22;5069917;28;20501;-74
2022/09/24 00:18:45;;;;;;;23.42;12.05;;;;;;;15.27;100.00;100918.00;5061672;28;20045;-73
2022/09/24 00:21:24;;;;;;;20.00;10.20;;;;;;;15.25;100.00;100912.03;5069615;28;20445;-74
2022/09/24 00:23:57;;;;;;;23.50;10.35;;;;;;;15.21;100.00;100908.53;5057498;28;20424;-75
2022/09/24 00:29:10;;;;;;;;;;;;;;;15.28;100.00;100922.34;5063659;28;20057;-73
2022/09/24 00:31:37;;;;;;;20.58;10.05;;;;;;;15.27;100.00;100923.56;5067837;28;19932;-74
2022/09/24 00:34:04;;;;;;;23.08;11.23;;;;;;;15.28;100.00;100925.13;5070882;28;20091;-75
2022/09/24 00:36:30;;;;;;;22.05;10.23;;;;;;;15.30;100.00;100917.13;5062059;28;20054;-74
2022/09/24 00:38:59;;;;;;;20.15;10.07;;;;;;;15.31;100.00;100926.28;5057747;28;20514;-75
2022/09/24 00:41:30;;;;;;;20.38;9.65;;;;;;;15.24;100.00;100912.47;5058208;28;20049;-75
2022/09/24 00:43:57;;;;;;;20.50;10.65;;;;;;;15.29;100.00;100915.53;5062867;28;20063;-75
2022/09/24 00:46:35;;;;;;;18.90;9.85;;;;;;;15.30;100.00;100910.78;5062806;28;20426;-74
2022/09/24 00:49:11;;;;;;;25.02;10.50;;;;;;;15.29;100.00;100917.56;5058198;28;20049;-75
2022/09/24 00:51:40;;;;;;;19.95;9.88;;;;;;;15.24;100.00;100896.53;5064777;28;20056;-75
2022/09/24 00:54:27;;;;;;;21.77;10.48;;;;;;;15.25;100.00;100914.03;5066871;28;20052;-75
2022/09/24 00:56:57;;;;;;;21.73;10.43;;;;;;;15.21;100.00;100913.31;5069188;28;20497;-76
2022/09/24 00:59:26;;;;;;;28.83;15.55;;;;;;;15.16;100.00;100914.56;5054227;28;20048;-73
2022/09/24 01:01:57;;;;;;;27.20;16.52;;;;;;;15.15;100.00;100915.78;5053132;28;20086;-74
2022/09/24 01:04:27;;;;;;;32.75;21.02;;;;;;;15.11;100.00;100908.69;5061562;28;20790;-75
2022/09/24 01:06:55;;;;;;;35.67;20.33;;;;;;;15.10;100.00;100904.34;5058909;28;20052;-73
2022/09/24 01:09:24;;;;;;;33.90;20.17;;;;;;;15.17;100.00;100907.00;5064346;28;20045;-74
2022/09/24 01:11:54;;;;;;;32.95;20.65;;;;;;;15.20;100.00;100912.53;5065570;28;20468;-74
2022/09/24 01:14:31;;;;;;;35.08;21.92;;;;;;;15.18;100.00;100914.16;5056522;28;20051;-75
2022/09/24 01:17:19;;;;;;;35.85;20.48;;;;;;;15.18;100.00;100903.81;5057954;28;20055;-75
2022/09/24 01:20:04;;;;;;;35.85;21.27;;;;;;;15.18;100.00;100903.81;5066325;28;20071;-74
2022/09/24 01:22:50;;;;;;;31.40;20.53;;;;;;;15.21;100.00;100904.94;5056920;28;20413;-73
2022/09/24 01:25:28;;;;;;;33.78;19.73;;;;;;;15.22;100.00;100898.16;5056236;28;20057;-74
2022/09/24 01:28:12;;;;;;;25.95;15.93;;;;;;;15.22;100.00;100901.75;5059801;28;20058;-74
2022/09/24 01:30:41;;;;;;;26.17;15.35;;;;;;;15.20;100.00;100895.81;5061041;28;20049;-74
2022/09/24 01:33:15;;;;;;;24.38;14.45;;;;;;;15.20;100.00;100895.00;5060341;28;20051;-74
2022/09/24 01:36:07;;;;;;;30.08;16.17;;;;;;;15.19;100.00;100896.25;5060505;28;20056;-74
2022/09/24 01:38:40;;;;;;;28.58;15.90;;;;;;;15.19;100.00;100893.44;5056197;28;20574;-74
2022/09/24 01:41:11;;;;;;;29.20;18.63;;;;;;;15.16;100.00;100897.84;5056744;28;20049;-74
2022/09/24 01:43:38;;;;;;;32.65;19.17;;;;;;;15.12;100.00;100897.13;5064718;28;20061;-74
2022/09/24 01:46:05;;;;;;;30.15;18.77;;;;;;;15.09;100.00;100895.19;5058273;28;20071;-74
2022/09/24 01:48:36;;;;;;;34.22;21.23;;;;;;;15.12;100.00;100901.94;5067031;28;20492;-74
2022/09/24 01:51:27;;;;;;;32.65;21.55;;;;;;;15.08;100.00;100895.59;5062778;28;20583;-72
2022/09/24 01:54:02;;;;;;;38.67;24.10;;;;;;;15.09;100.00;100895.19;5058750;28;20051;-75
2022/09/24 01:56:32;;;;;;;37.85;23.35;;;;;;;15.12;100.00;100896.34;5063615;28;20063;-76
2022/09/24 01:59:05;;;;;;;37.75;22.80;;;;;;;15.11;100.00;100881.63;5060277;28;20051;-76
2022/09/24 02:01:39;;;;;;;28.13;17.38;;;;;;;15.06;100.00;100879.31;5060930;28;20052;-76
2022/09/24 02:04:14;;;;;;;28.65;18.05;;;;;;;15.12;100.00;100883.19;5056371;28;20041;-73
2022/09/24 02:06:53;;;;;;;31.30;17.75;;;;;;;15.12;100.00;100877.63;5070030;28;20548;-76
2022/09/24 02:09:32;;;;;;;30.63;17.25;;;;;;;15.13;100.00;100884.00;5062424;28;20052;-76
2022/09/24 02:12:06;;;;;;;31.90;18.10;;;;;;;15.11;100.00;100876.06;5057273;28;20045;-76
2022/09/24 02:14:38;;;;;;;32.05;18.67;;;;;;;15.09;100.00;100883.28;5062130;28;20067;-76
2022/09/24 02:17:05;;;;;;;33.70;20.55;;;;;;;15.03;100.00;100874.59;5065259;28;20048;-73
2022/09/24 02:19:36;;;;;;;36.00;21.98;;;;;;;15.07;100.00;100878.13;5054761;28;20452;-75
2022/09/24 02:22:08;;;;;;;37.63;20.55;;;;;;;15.06;100.00;100870.94;5058120;28;20048;-73
2022/09/24 02:24:51;;;;;;;35.50;20.48;;;;;;;15.06;100.00;100868.16;5062459;28;20045;-74
2022/09/24 02:27:18;;;;;;;32.20;19.48;;;;;;;15.06;100.00;100868.16;5051629;28;20560;-76
2022/09/24 02:29:45;;;;;;;35.33;20.02;;;;;;;15.06;100.00;100854.22;5067193;28;20509;-73
2022/09/24 02:32:15;;;;;;;31.88;19.85;;;;;;;15.06;100.00;100856.25;5056162;28;20053;-74
2022/09/24 02:34:50;;;;;;;32.38;19.17;;;;;;;15.04;100.00;100859.47;5062818;28;20481;-73
2022/09/24 02:37:19;;;;;;;33.08;20.92;;;;;;;15.04;100.00;100853.88;5051363;28;20052;-72
2022/09/24 02:39:45;;;;;;;39.17;21.52;;;;;;;14.95;100.00;100848.06;5061887;28;20203;-73
2022/09/24 02:42:13;;;;;;;36.03;21.95;;;;;;;15.00;100.00;100853.16;5057257;28;20059;-73
2022/09/24 02:44:40;;;;;;;38.42;22.05;;;;;;;14.98;100.00;100844.44;5066280;28;20454;-73
2022/09/24 02:47:07;;;;;;;40.85;23.30;;;;;;;14.95;100.00;100842.47;5051594;28;20421;-74
2022/09/24 02:49:33;;;;;;;40.22;23.58;;;;;;;14.87;100.00;100848.59;5067468;28;20525;-74
2022/09/24 02:52:00;;;;;;;35.38;22.45;;;;;;;14.88;100.00;100834.25;5062354;28;20071;-71
2022/09/24 02:54:27;;;;;;;36.47;21.08;;;;;;;14.87;100.00;100846.59;5067301;28;20091;-75
2022/09/24 02:56:53;;;;;;;32.40;20.83;;;;;;;14.87;100.00;100841.03;5059486;28;20063;-75
2022/09/24 02:59:20;;;;;;;35.25;22.15;;;;;;;14.88;100.00;100836.22;5068834;28;20064;-73
2022/09/24 03:01:47;;;;;;;37.90;21.10;;;;;;;14.83;100.00;100837.53;5058600;28;20036;-74
2022/09/24 03:04:14;;;;;;;37.00;21.90;;;;;;;14.86;100.00;100833.91;5060710;28;20051;-75
2022/09/24 03:06:41;;;;;;;40.65;23.45;;;;;;;14.86;100.00;100845.03;5056007;28;20049;-72
2022/09/24 03:09:11;;;;;;;38.33;22.38;;;;;;;14.86;100.00;100831.13;5064019;28;20055;-74
2022/09/24 03:11:38;;;;;;;34.85;21.55;;;;;;;14.82;100.00;100827.56;5057596;28;20044;-73
2022/09/24 03:14:05;;;;;;;38.15;22.60;;;;;;;14.87;100.00;100834.66;5065396;28;20135;-73
2022/09/24 03:16:32;;;;;;;40.00;24.10;;;;;;;14.86;100.00;100830.31;5056094;28;20051;-73
2022/09/24 03:18:59;;;;;;;37.08;22.40;;;;;;;14.85;100.00;100823.94;5055439;28;20537;-73
2022/09/24 03:21:25;;;;;;;35.67;22.45;;;;;;;14.86;100.00;100831.13;5063447;28;20045;-76
2022/09/24 03:23:52;;;;;;;37.28;21.40;;;;;;;14.84;100.00;100825.16;5058267;28;20048;-75
2022/09/24 03:26:19;;;;;;;38.65;21.90;;;;;;;14.84;100.00;100829.94;5066809;28;20051;-73
2022/09/24 03:28:45;;;;;;;37.78;21.55;;;;;;;14.82;100.00;100819.22;5056200;28;20045;-75
2022/09/24 03:31:12;;;;;;;37.95;21.48;;;;;;;14.81;100.00;100816.84;5057015;28;20045;-74
2022/09/24 03:33:45;;;;;;;37.42;22.88;;;;;;;14.80;100.00;100823.66;5058325;28;20460;-75
2022/09/24 03:36:23;;;;;;;36.40;21.55;;;;;;;14.79;100.00;100825.63;5066912;28;20051;-76
2022/09/24 03:38:55;;;;;;;35.38;21.70;;;;;;;14.75;100.00;100810.97;5048277;28;20048;-75
2022/09/24 03:41:26;;;;;;;39.05;22.67;;;;;;;14.78;100.00;100817.72;5063108;28;20049;-75
2022/09/24 03:43:53;;;;;;;40.13;23.50;;;;;;;14.75;100.00;100813.00;5056207;28;20040;-75
2022/09/24 03:46:20;;;;;;;38.15;24.02;;;;;;;14.71;100.00;100807.47;5067888;28;20105;-74
2022/09/24 03:48:48;;;;;;;41.78;23.48;;;;;;;14.69;100.00;100809.91;5062907;28;20468;-75
2022/09/24 03:51:17;;;;;;;39.30;23.45;;;;;;;14.70;100.00;100805.91;5063035;28;20053;-75
2022/09/24 03:53:45;;;;;;;43.17;24.88;;;;;;;14.69;100.00;100817.47;5067639;28;20373;-75
2022/09/24 03:56:11;;;;;;;41.30;22.95;;;;;;;14.65;100.00;100808.38;5059781;28;20049;-74
2022/09/24 03:58:39;;;;;;;40.92;23.55;;;;;;;14.65;100.00;100808.38;5061477;28;20141;-75
2022/09/24 04:01:07;;;;;;;41.47;25.55;;;;;;;14.61;100.00;100796.50;5061996;28;20499;-75
2022/09/24 04:03:35;;;;;;;40.15;24.70;;;;;;;14.64;100.00;100810.38;5062852;28;20047;-75
2022/09/24 04:06:02;;;;;;;44.85;25.08;;;;;;;14.62;100.00;100806.44;5058738;28;20052;-75
2022/09/24 04:08:30;;;;;;;46.20;26.90;;;;;;;14.59;100.00;100802.50;5067269;28;20048;-73
2022/09/24 04:10:57;;;;;;;42.85;25.95;;;;;;;14.60;100.00;100801.28;5061932;28;20040;-73
2022/09/24 04:13:23;;;;;;;45.20;25.55;;;;;;;14.60;100.00;100811.63;5063300;28;20040;-75
2022/09/24 04:15:50;;;;;;;45.33;25.02;;;;;;;14.62;100.00;100807.22;5061480;28;20107;-75
2022/09/24 04:18:17;;;;;;;46.95;24.55;;;;;;;14.59;100.00;100793.38;5067141;28;20889;-75
2022/09/24 04:20:44;;;;;;;43.95;24.58;;;;;;;14.63;100.00;100799.66;5068226;28;20047;-74
2022/09/24 04:23:11;;;;;;;42.60;25.60;;;;;;;14.63;100.00;100794.88;5069740;28;20056;-73
2022/09/24 04:25:39;;;;;;;46.45;25.00;;;;;;;14.62;100.00;100796.06;5069221;28;20055;-74
2022/09/24 04:28:07;;;;;;;41.88;23.67;;;;;;;14.61;100.00;100794.50;5068229;28;20044;-73
2022/09/24 04:30:35;;;;;;;42.08;23.90;;;;;;;14.61;100.00;100791.72;5065848;28;20071;-73
2022/09/24 04:33:01;;;;;;;43.88;24.63;;;;;;;14.60;100.00;100792.16;5066371;28;20039;-74
2022/09/24 04:35:30;;;;;;;42.05;25.08;;;;;;;14.60;100.00;100792.94;5058136;28;20851;-74
2022/09/24 04:37:58;;;;;;;43.22;24.20;;;;;;;14.60;100.00;100787.38;5066325;28;20060;-74
2022/09/24 04:40:25;;;;;;;41.75;23.58;;;;;;;14.57;100.00;100791.00;5061651;28;20542;-74
2022/09/24 04:42:52;;;;;;;40.20;25.00;;;;;;;14.57;100.00;100795.78;5063626;28;20700;-73
2022/09/24 04:45:19;;;;;;;45.35;24.90;;;;;;;14.54;100.00;100793.81;5065741;28;20045;-74
2022/09/24 04:47:51;;;;;;;46.78;25.58;;;;;;;14.52;100.00;100794.25;5058219;28;20049;-75
2022/09/24 04:50:19;;;;;;;44.58;24.77;;;;;;;14.48;100.00;100787.94;5065769;28;20051;-73
2022/09/24 04:52:46;;;;;;;50.25;26.63;;;;;;;14.52;100.00;100794.25;5060217;28;20041;-73
2022/09/24 04:55:13;;;;;;;49.33;24.48;;;;;;;14.53;100.00;100793.06;5066478;28;20052;-73
2022/09/24 04:57:40;;;;;;;74.80;41.60;;;;;;;14.52;100.00;100791.47;5056969;28;20044;-72
2022/09/24 05:00:13;;;;;;;72.13;42.53;;;;;;;14.50;100.00;100785.53;5057998;28;20057;-73
2022/09/24 05:02:41;;;;;;;64.07;38.50;;;;;;;14.49;100.00;100792.34;5061842;28;20071;-73
2022/09/24 05:05:10;;;;;;;61.90;38.47;;;;;;;14.49;100.00;100783.19;5061303;28;20052;-75
2022/09/24 05:07:37;;;;;;;68.68;39.58;;;;;;;14.48;100.00;100793.53;5065973;28;20409;-75
2022/09/24 05:10:05;;;;;;;57.92;35.45;;;;;;;14.48;100.00;100792.75;5057574;28;20816;-75
2022/09/24 05:12:32;;;;;;;56.13;31.85;;;;;;;14.39;100.00;100784.94;5059690;28;20064;-75
2022/09/24 05:14:59;;;;;;;48.75;30.00;;;;;;;14.42;100.00;100781.31;5054292;28;20041;-75
2022/09/24 05:17:26;;;;;;;49.78;29.85;;;;;;;14.40;100.00;100786.50;5059488;28;20067;-75
2022/09/24 05:19:52;;;;;;;51.08;29.25;;;;;;;14.39;100.00;100787.72;5064470;28;20436;-75
2022/09/24 05:22:19;;;;;;;50.72;30.95;;;;;;;14.39;100.00;100784.94;5060427;28;20059;-75
2022/09/24 05:24:46;;;;;;;54.72;30.98;;;;;;;14.40;100.00;100791.28;5061187;28;20043;-75
2022/09/24 05:27:12;;;;;;;50.63;30.15;;;;;;;14.40;100.00;100791.28;5061063;28;20045;-75
2022/09/24 05:29:42;;;;;;;49.83;29.10;;;;;;;14.35;100.00;100792.53;5059646;28;20052;-75
2022/09/24 05:32:11;;;;;;;48.13;29.25;;;;;;;14.28;100.00;100794.66;5063032;28;20049;-75
2022/09/24 05:34:38;;;;;;;69.03;34.13;;;;;;;14.25;100.00;100799.06;5059110;28;20055;-75
2022/09/24 05:37:04;;;;;;;50.55;30.33;;;;;;;14.19;100.00;100786.78;5058225;28;20459;-75
2022/09/24 05:39:31;;;;;;;49.58;29.23;;;;;;;14.26;100.00;100795.06;5070462;28;20048;-75
2022/09/24 05:42:02;;;;;;;51.88;30.13;;;;;;;14.25;100.00;100804.63;5057585;28;20071;-75
2022/09/24 05:44:30;;;;;;;51.70;30.13;;;;;;;14.28;100.00;100803.00;5056417;28;20408;-75
2022/09/24 05:46:57;;;;;;;52.15;29.25;;;;;;;14.24;100.00;100785.56;5060096;28;20044;-75
2022/09/24 05:49:24;;;;;;;48.88;29.23;;;;;;;14.31;100.00;100791.81;5068579;28;20065;-75
2022/09/24 05:51:50;;;;;;;50.33;29.40;;;;;;;14.33;100.00;100803.31;5060977;28;20044;-75
2022/09/24 05:54:17;;;;;;;51.72;29.02;;;;;;;14.34;100.00;100804.13;5061823;28;20036;-75
2022/09/24 05:56:44;;;;;;;50.47;29.75;;;;;;;14.37;100.00;100808.81;5060955;28;20041;-75
2022/09/24 05:59:11;;;;;;;51.70;28.17;;;;;;;14.33;100.00;100797.75;5059066;28;20059;-74
2022/09/24 06:01:37;;;;;;;47.38;28.15;;;;;;;14.40;100.00;100800.41;5060614;28;20136;-76
2022/09/24 06:04:04;;;;;;;49.67;29.60;;;;;;;14.41;100.00;100807.56;5058936;28;20037;-76
2022/09/24 06:06:35;;;;;;;47.83;27.80;;;;;;;14.45;100.00;100810.28;5060124;28;20048;-74
2022/09/24 06:09:02;;;;;;;43.85;27.08;;;;;;;14.46;100.00;100807.09;5068480;28;20045;-73
2022/09/24 06:11:33;;;;;;;45.50;28.65;;;;;;;14.46;100.00;100809.88;5066349;28;20265;-74
2022/09/24 06:14:05;;;;;;;48.97;30.88;;;;;;;14.45;100.00;100805.50;5060357;28;20095;-76
2022/09/24 06:16:33;;;;;;;58.53;31.80;;;;;;;14.47;100.00;100805.06;5067591;28;20044;-74
2022/09/24 06:19:00;;;;;;;55.25;34.67;;;;;;;14.45;100.00;100799.94;5065965;28;20214;-73
2022/09/24 06:21:26;;;;;;;56.47;32.35;;;;;;;14.52;100.00;100808.16;5056730;28;20037;-73
2022/09/24 06:23:53;;;;;;;48.30;29.58;;;;;;;14.54;100.00;100813.31;5060448;28;20094;-74
2022/09/24 06:26:20;;;;;;;51.55;28.58;;;;;;;14.57;100.00;100809.69;5066631;28;20067;-74
2022/09/24 06:28:46;;;;;;;51.38;29.23;;;;;;;14.60;100.00;100815.22;5068628;28;20048;-74
2022/09/24 06:31:13;;;;;;;46.13;27.80;;;;;;;14.63;100.00;100817.16;5065122;28;20052;-75
2022/09/24 06:33:39;;;;;;;52.60;30.85;;;;;;;14.65;100.00;100816.75;5058404;28;20044;-73
2022/09/24 06:36:06;;;;;;;52.35;30.60;;;;;;;14.71;100.00;100821.41;5068015;28;20488;-74
2022/09/24 06:38:34;;;;;;;53.53;32.47;;;;;;;14.68;100.00;100822.25;5068370;28;20044;-74
2022/09/24 06:41:03;;;;;;;47.55;29.48;;;;;;;14.69;100.00;100823.84;5068359;28;20040;-74
2022/09/24 06:43:31;;;;;;;52.20;31.55;;;;;;;14.74;100.00;100834.47;5068374;28;20067;-74
2022/09/24 06:45:58;;;;;;;69.47;42.25;;;;;;;14.69;100.00;100825.81;5068205;28;20404;-74
2022/09/24 06:48:26;;;;;;;72.22;47.08;;;;;;;14.75;100.00;100835.28;5068904;28;20044;-73
2022/09/24 06:50:53;;;;;;;63.00;40.47;;;;;;;14.81;100.00;100837.16;5068221;28;20056;-74
2022/09/24 06:53:20;;;;;;;49.60;29.40;;;;;;;14.82;100.00;100830.34;5067866;28;20044;-74
2022/09/24 06:55:47;;;;;;;42.92;25.85;;;;;;;14.82;100.00;100841.50;5068131;28;20124;-74
2022/09/24 06:58:18;;;;;;;48.40;27.65;;;;;;;14.87;100.00;100838.25;5068200;28;20048;-74
2022/09/24 07:00:57;;;;;;;47.63;28.75;;;;;;;14.91;100.00;100838.97;5069038;28;20088;-74
2022/09/24 07:03:26;;;;;;;45.30;25.67;;;;;;;14.99;100.00;100834.06;5067369;28;20136;-74
2022/09/24 07:05:53;;;;;;;44.63;25.80;;;;;;;15.03;100.00;100832.81;5066388;28;20055;-74
2022/09/24 07:08:20;;;;;;;40.03;24.00;;;;;;;15.06;100.00;100834.72;5059029;28;20049;-74
2022/09/24 07:10:53;;;;;;;40.33;21.95;;;;;;;15.09;100.00;100835.88;5057432;28;20045;-73
2022/09/24 07:13:20;;;;;;;39.90;21.77;;;;;;;15.16;100.00;100839.31;5064199;28;20544;-74
2022/09/24 07:15:49;;;;;;;37.53;22.17;;;;;;;15.21;100.00;100843.63;5067914;28;20049;-73
2022/09/24 07:18:16;;;;;;;35.88;22.65;;;;;;;15.30;100.00;100838.28;5064865;28;20037;-74
2022/09/24 07:20:43;;;;;;;43.40;22.67;;;;;;;15.37;100.00;100839.00;5071141;28;20532;-74
2022/09/24 07:23:11;;;;;;;42.08;25.33;;;;;;;15.45;100.00;100834.03;5069814;28;20052;-73
2022/09/24 07:25:38;;;;;;;48.58;26.98;;;;;;;15.53;100.00;100835.50;5070496;28;20045;-74
2022/09/24 07:28:10;;;;;;;37.65;24.60;;;;;;;15.63;100.00;100837.28;5061765;28;20058;-69
2022/09/24 07:30:38;;;;;;;41.90;23.95;;;;;;;15.73;100.00;100846.66;5068974;28;20051;-72
2022/09/24 07:33:06;;;;;;;35.20;20.27;;;;;;;15.78;100.00;100844.16;5064066;28;20084;-70
2022/09/24 07:35:35;;;;;;;41.08;23.83;;;;;;;15.86;100.00;100847.59;5066942;28;20135;-70
2022/09/24 07:38:05;;;;;;;39.40;23.35;;;;;;;15.93;100.00;100850.22;5067823;28;20045;-70
2022/09/24 07:40:32;;;;;;;36.63;22.45;;;;;;;15.99;100.00;100846.50;5070529;28;20096;-69
2022/09/24 07:42:59;;;;;;;37.63;21.65;;;;;;;16.01;100.00;100851.66;5062361;28;20048;-69
2022/09/24 07:45:28;;;;;;;42.45;21.77;;;;;;;15.97;100.00;100845.38;5064639;28;20512;-70
2022/09/24 07:48:00;;;;;;;34.78;21.38;;;;;;;16.00;100.00;100853.63;5057232;28;20144;-70
2022/09/24 07:50:28;;;;;;;36.00;20.55;;;;;;;16.01;100.00;100860.03;5068631;28;20048;-69
2022/09/24 07:52:55;;;;;;;41.53;21.13;;;;;;;16.01;100.00;100860.81;5063836;28;20699;-69
2022/09/24 07:55:23;;;;;;;38.35;18.95;;;;;;;15.99;100.00;100865.25;5062848;28;20044;-70
2022/09/24 07:57:51;;;;;;;37.22;20.40;;;;;;;15.93;100.00;100858.59;5055331;28;20040;-69
2022/09/24 08:00:20;;;;;;;36.08;17.75;;;;;;;15.95;100.00;100868.13;5068221;28;20048;-70
2022/09/24 08:02:47;;;;;;;31.23;16.92;;;;;;;15.95;100.00;100868.13;5062960;28;20045;-69
2022/09/24 08:05:15;;;;;;;37.20;18.75;;;;;;;16.04;100.00;100864.75;5067087;28;20052;-70
2022/09/24 08:07:42;;;;;;;36.05;19.67;;;;;;;16.04;100.00;100870.31;5066019;28;20048;-70
2022/09/24 08:10:08;;;;;;;36.13;20.73;;;;;;;16.17;100.00;100868.47;5066732;28;20052;-71
2022/09/24 08:12:35;;;;;;;37.60;21.95;;;;;;;16.25;100.00;100865.06;5062944;28;20871;-70
2022/09/24 08:15:01;;;;;;;38.33;20.70;;;;;;;16.31;100.00;100862.56;5063544;28;20040;-70
2022/09/24 08:17:28;;;;;;;38.63;20.08;;;;;;;16.41;100.00;100867.91;5063456;28;20047;-70
2022/09/24 08:19:55;;;;;;;36.63;19.50;;;;;;;16.48;100.00;100867.00;5064100;28;20412;-70
2022/09/24 08:22:23;;;;;;;39.58;21.83;;;;;;;16.58;100.00;100865.97;5063091;28;20056;-69
2022/09/24 08:24:50;;;;;;;30.10;15.95;;;;;;;16.46;100.00;100864.63;5062974;28;20040;-70
2022/09/24 08:27:18;;;;;;;34.83;19.75;;;;;;;16.62;100.00;100872.25;5062144;28;20048;-70
2022/09/24 08:29:44;;;;;;;37.45;19.27;;;;;;;16.71;100.00;100867.63;5061096;28;20484;-72
2022/09/24 08:32:12;;;;;;;33.15;17.80;;;;;;;16.78;100.00;100870.25;5061778;28;20055;-71
2022/09/24 08:34:39;;;;;;;37.00;19.45;;;;;;;16.81;100.00;100869.38;5063139;28;20036;-70
2022/09/24 08:37:06;;;;;;;35.72;19.30;;;;;;;16.83;100.00;100878.13;5064737;28;20052;-70
2022/09/24 08:39:34;;;;;;;34.47;17.83;;;;;;;16.88;100.00;100874.03;5063477;28;20716;-71
2022/09/24 08:42:03;;;;;;;34.08;18.90;;;;;;;16.91;100.00;100871.13;5061801;28;20064;-70
2022/09/24 08:47:42;;;;;;;35.38;16.45;;;;;;;17.07;100.00;100876.72;5058909;28;20083;-72
2022/09/24 08:50:16;;;;;;;33.00;17.92;;;;;;;17.21;100.00;100881.19;5064544;28;20053;-70
2022/09/24 08:52:42;;;;;;;32.65;18.90;;;;;;;17.32;100.00;100876.88;5065744;28;20052;-70
2022/09/24 08:55:21;;;;;;;36.33;18.50;;;;;;;17.32;100.00;100881.69;5063838;28;20041;-70
2022/09/24 08:58:07;;;;;;;34.13;18.80;;;;;;;17.47;100.00;100877.31;5063610;28;20055;-71
2022/09/24 09:00:42;;;;;;;36.28;20.77;;;;;;;17.50;100.00;100874.44;5064451;28;20444;-71
2022/09/24 09:03:21;;;;;;;32.15;17.30;;;;;;;17.43;100.00;100866.25;5062301;28;20048;-71
2022/09/24 09:05:55;;;;;;;31.08;14.68;;;;;;;17.47;100.00;100866.91;5064176;28;20045;-72
2022/09/24 09:08:48;;;;;;;32.03;16.00;;;;;;;17.48;100.00;100878.88;5063237;28;20063;-71
2022/09/24 09:11:35;;;;;;;34.42;17.73;;;;;;;17.56;100.00;100864.25;5044943;28;20102;-71
2022/09/24 09:14:10;;;;;;;26.98;13.35;;;;;;;17.61;100.00;100880.53;5064512;28;20041;-70
2022/09/24 09:16:52;;;;;;;20.92;9.82;;;;;;;17.65;100.00;100877.66;5064929;28;20036;-71
2022/09/24 09:19:26;;;;;;;27.00;15.40;;;;;;;17.92;100.00;100876.03;5062010;28;20048;-70
2022/09/24 09:22:06;;;;;;;29.60;12.65;;;;;;;17.76;100.00;100878.91;5061957;28;20049;-70
2022/09/24 09:24:48;;;;;;;33.08;14.85;;;;;;;17.82;100.00;100887.56;5059671;28;20037;-71
2022/09/24 09:27:17;;;;;;;27.77;14.48;;;;;;;17.99;100.00;100894.66;5064426;28;20052;-71
2022/09/24 09:29:49;;;;;;;27.10;14.32;;;;;;;18.13;100.00;100894.25;5061594;28;20676;-70
2022/09/24 09:32:33;;;;;;;24.95;12.07;;;;;;;18.10;100.00;100885.94;5060992;28;20045;-72
2022/09/24 09:35:12;;;;;;;22.42;11.95;;;;;;;18.15;100.00;100891.00;5062012;28;20047;-71
2022/09/24 09:37:59;;;;;;;26.67;13.75;;;;;;;18.10;100.00;100895.13;5062688;28;20059;-71
2022/09/24 09:40:38;;;;;;;27.40;13.18;;;;;;;18.24;100.00;100896.72;5060572;28;20056;-71
2022/09/24 09:43:10;;;;;;;18.23;7.63;;;;;;;18.05;100.00;100894.91;5062484;28;20098;-72
2022/09/24 09:45:43;;;;;;;28.30;10.93;;;;;;;18.06;100.00;100890.88;5063715;28;20043;-69
2022/09/24 09:48:12;;;;;;;14.20;5.40;;;;;;;17.91;100.00;100901.69;5062227;28;20044;-69
2022/09/24 09:50:50;;;;;;;19.85;7.45;;;;;;;17.94;100.00;100895.19;5061433;28;20408;-69
2022/09/24 09:53:22;;;;;;;21.80;11.05;;;;;;;18.20;100.00;100896.84;5060337;28;20040;-70
2022/09/24 09:56:00;;;;;;;23.17;10.48;;;;;;;18.27;100.00;100888.22;5062157;28;20048;-71
2022/09/24 09:58:29;;;;;;;18.88;8.75;;;;;;;18.28;100.00;100887.00;5062110;28;20044;-70
2022/09/24 10:01:30;;;;;;;18.52;8.23;;;;;;;18.39;100.00;100884.69;5058273;28;20052;-69
2022/09/24 10:04:01;;;;;;;16.30;6.22;;;;;;;18.21;100.00;100880.81;5035455;28;22221;-68
2022/09/24 10:06:30;;;;;;;18.58;7.72;;;;;;;18.43;100.00;100893.78;5068112;28;20052;-69
2022/09/24 10:09:21;;;;;;;18.23;8.55;;;;;;;18.59;100.00;100888.06;5084821;28;20056;-70
2022/09/24 10:11:47;;;;;;;15.15;7.15;;;;;;;18.55;100.00;100890.19;5067950;28;20048;-70
2022/09/24 10:14:18;;;;;;;17.85;6.95;;;;;;;18.58;100.00;100892.09;5063248;28;20059;-71
2022/09/24 10:16:51;;;;;;;9.60;4.10;;;;;;;18.32;100.00;100884.09;5059978;28;20516;-71
2022/09/24 10:19:23;;;;;;;13.68;5.85;;;;;;;18.29;100.00;100901.78;5061019;28;21817;-70
2022/09/24 10:21:52;;;;;;;16.92;6.28;;;;;;;18.43;100.00;100893.78;5059892;28;20135;-69
2022/09/24 10:24:24;;;;;;;17.02;7.68;;;;;;;18.52;100.00;100887.53;5061078;28;20428;-70
2022/09/24 10:26:52;;;;;;;18.65;8.20;;;;;;;18.75;100.00;100892.78;5060333;28;20051;-71
2022/09/24 10:32:20;;;;;;;18.65;9.02;;;;;;;19.18;100.00;100893.75;5059972;28;20053;-71
2022/09/24 10:35:17;;;;;;;18.45;8.40;;;;;;;19.00;97.18;100887.16;5062088;28;20036;-70
2022/09/24 10:37:55;;;;;;;20.08;9.95;;;;;;;19.16;100.00;100882.19;5058667;28;20052;-71
2022/09/24 10:40:29;;;;;;;19.00;10.35;;;;;;;19.27;100.00;100891.06;5059777;28;20045;-70
2022/09/24 10:43:01;;;;;;;21.92;11.55;;;;;;;19.34;97.58;100890.06;5062524;28;20052;-70
2022/09/24 10:45:42;;;;;;;21.42;11.77;;;;;;;19.42;98.56;100886.56;5063904;28;20048;-71
2022/09/24 10:48:18;;;;;;;24.20;12.73;;;;;;;19.54;99.31;100896.94;5061513;28;20425;-70
2022/09/24 10:50:50;;;;;;;21.77;11.85;;;;;;;19.56;98.36;100894.47;5061990;28;20109;-71
2022/09/24 10:53:27;;;;;;;22.20;12.60;;;;;;;19.55;98.97;100895.72;5059704;28;20495;-71
2022/09/24 10:56:05;;;;;;;22.38;12.73;;;;;;;19.49;100.00;100891.13;5064023;28;20040;-68
2022/09/24 10:59:08;;;;;;;22.42;11.73;;;;;;;19.45;100.00;100896.88;5066615;28;20060;-69
2022/09/24 11:01:55;;;;;;;20.35;11.57;;;;;;;19.40;100.00;100888.22;5061045;28;20060;-70
2022/09/24 11:04:27;;;;;;;25.27;13.68;;;;;;;19.32;100.00;100893.31;5062510;28;20056;-69
2022/09/24 11:07:41;;;;;;;20.73;11.68;;;;;;;19.07;98.98;100895.34;5061547;28;20052;-69
2022/09/24 11:10:17;;;;;;;20.40;10.10;;;;;;;18.85;99.46;100889.66;5066208;28;20048;-71
2022/09/24 11:13:09;;;;;;;22.17;13.25;;;;;;;18.85;100.00;100889.66;5060231;28;20056;-70
2022/09/24 11:15:45;;;;;;;21.98;12.20;;;;;;;18.84;100.00;100892.91;5055886;28;20418;-69
2022/09/24 11:18:35;;;;;;;24.48;12.93;;;;;;;18.77;100.00;100881.91;5060357;28;20113;-68
2022/09/24 11:21:01;;;;;;;23.92;13.82;;;;;;;18.73;100.00;100900.88;5065279;28;20119;-68
2022/09/24 11:23:52;;;;;;;22.20;14.05;;;;;;;18.67;100.00;100897.84;5058001;28;20061;-69
2022/09/24 11:26:48;;;;;;;23.73;13.82;;;;;;;18.47;100.00;100897.25;5049856;28;20244;-71
2022/09/24 11:29:24;;;;;;;20.42;13.07;;;;;;;18.38;100.00;100901.94;4972930;28;20054;-69